EW7791 Ponce PR US current weather conditions

sailwx.info

Wind from 076 at 6 knots gusting 10

Air temperature 26.1° C
Dewpoint 23.0° C

Last reported at 2020-Aug-13 07:45 UTC.
Time now 2020-Aug-13 08:25 UTC

Location: N 17°58' W 066°37'.
View on Google Maps.

See reports from other nearby stations

  
Tides and Currents Weather Stations Pressure Air Temp Water Temp Dewpoint Dewpoint Depression Visibility Wind Speed Wind Dir Waves Ship Positions
date/time (UTC)wind fromknots sea level pressurealtimeterstation pressurevisibilityair tempwater tempwave heightnotes
2020-Aug-13 08:00 075 7 gusting 11 26.1
2020-Aug-13 07:45 076 6 gusting 10 26.1
2020-Aug-13 07:30 070 6 gusting 9 26.1
2020-Aug-13 07:15 090 6 gusting 8 26.1
2020-Aug-13 07:00 086 5 gusting 8 26.1
2020-Aug-13 06:45 079 4 gusting 7 26.7
2020-Aug-13 06:30 071 3 gusting 7 26.7
2020-Aug-13 06:15 074 4 gusting 6 26.7
2020-Aug-13 05:46 082 4 gusting 7 27.2
2020-Aug-13 05:33 072 4 gusting 6 27.2
2020-Aug-13 05:16 071 2 gusting 6 27.2
2020-Aug-13 05:03 072 2 gusting 7 27.2
2020-Aug-13 04:48 067 3 gusting 7 27.2
2020-Aug-13 04:32 067 5 gusting 7 27.2
2020-Aug-13 04:16 067 5 gusting 7 27.2
2020-Aug-13 04:02 059 3 gusting 7 27.2
2020-Aug-13 03:45 076 3 gusting 7 27.2
2020-Aug-13 03:31 076 3 gusting 7 27.2
2020-Aug-13 03:15 069 5 gusting 7 27.2
2020-Aug-13 03:01 082 4 gusting 7 27.2
2020-Aug-13 02:46 092 5 gusting 7 27.8
2020-Aug-13 02:31 074 4 gusting 7 27.8
2020-Aug-13 02:16 075 4 gusting 8 27.8
2020-Aug-13 02:01 051 6 gusting 8 27.8
2020-Aug-13 01:46 053 4 gusting 8 28.3
2020-Aug-13 01:31 077 5 gusting 9 27.8
2020-Aug-13 01:16 079 5 gusting 7 27.8
2020-Aug-13 01:01 078 5 gusting 8 28.3
2020-Aug-13 00:46 084 5 gusting 9 28.3
2020-Aug-13 00:31 059 6 gusting 10 28.9
2020-Aug-13 00:15 082 6 gusting 11 28.9
2020-Aug-13 00:01 084 7 gusting 13 28.9
2020-Aug-12 23:46 103 10 gusting 21 29.4
2020-Aug-12 23:30 128 12 gusting 20 29.4
2020-Aug-12 23:16 157 13 gusting 22 29.4
2020-Aug-12 23:00 146 12 gusting 21 29.4
2020-Aug-12 22:46 123 11 gusting 17 29.4
2020-Aug-12 22:31 143 13 gusting 19 29.4
2020-Aug-12 22:16 174 12 gusting 19 30.0
2020-Aug-12 22:01 129 12 gusting 19 29.4
2020-Aug-12 21:46 118 10 gusting 19 30.0
2020-Aug-12 21:30 151 9 gusting 21 30.0
2020-Aug-12 21:15 152 13 gusting 20 30.6
2020-Aug-12 21:01 171 9 gusting 15 30.6
2020-Aug-12 20:45 131 7 gusting 16 30.6
2020-Aug-12 20:31 128 8 gusting 19 30.6
2020-Aug-12 20:16 134 12 gusting 23 30.6
2020-Aug-12 20:00 142 9 gusting 18 30.6
2020-Aug-12 19:46 134 12 gusting 20 30.6
2020-Aug-12 19:31 113 14 gusting 19 30.6
2020-Aug-12 19:16 119 10 gusting 20 30.6
2020-Aug-12 19:01 136 10 gusting 17 31.1
2020-Aug-12 18:45 132 11 gusting 19 31.1
2020-Aug-12 18:31 140 11 gusting 16 31.1
2020-Aug-12 18:16 132 10 gusting 17 31.1
2020-Aug-12 18:00 105 8 gusting 15 31.1
2020-Aug-12 17:45 117 11 gusting 17 31.1
2020-Aug-12 17:30 160 9 gusting 17 31.1
2020-Aug-12 17:15 160 6 gusting 13 31.1
2020-Aug-12 17:00 152 8 gusting 13 31.7
2020-Aug-12 16:45 160 6 gusting 13 32.2
2020-Aug-12 16:30 136 9 gusting 16 31.7
2020-Aug-12 16:15 128 7 gusting 13 31.1
2020-Aug-12 16:00 114 7 gusting 13 31.1
2020-Aug-12 15:46 178 6 gusting 14 31.1
2020-Aug-12 15:30 143 6 gusting 12 31.1
2020-Aug-12 15:15 162 7 gusting 12 30.6
2020-Aug-12 15:00 170 6 gusting 13 30.6
2020-Aug-12 14:45 138 7 gusting 12 30.6
2020-Aug-12 14:30 132 8 gusting 13 30.0
2020-Aug-12 14:15 163 8 gusting 13 30.6
2020-Aug-12 14:00 128 5 gusting 13 31.7
2020-Aug-12 13:45 105 9 gusting 16 31.1
2020-Aug-12 13:30 163 10 gusting 16 30.6
2020-Aug-12 13:15 115 6 gusting 10 30.6
2020-Aug-12 13:02 086 6 gusting 11 30.0
2020-Aug-12 12:46 126 4 gusting 8 29.4
2020-Aug-12 12:31 042 2 gusting 5 28.9
2020-Aug-12 12:16 037 3 gusting 6 28.3
2020-Aug-12 12:02 030 2 gusting 5 27.8
2020-Aug-12 11:45 046 2 gusting 5 26.7
2020-Aug-12 11:31 024 3 gusting 6 26.7
2020-Aug-12 11:16 035 4 gusting 6 26.1
2020-Aug-12 11:01 033 2 gusting 5 26.1
2020-Aug-12 10:47 046 2 gusting 5 25.6
2020-Aug-12 10:31 065 2 gusting 6 25.6
2020-Aug-12 10:16 038 2 gusting 4 25.6
2020-Aug-12 10:02 048 2 gusting 4 25.6
2020-Aug-12 09:45 034 3 gusting 6 25.6
2020-Aug-12 09:31 042 4 gusting 7 25.6
2020-Aug-12 09:15 047 4 gusting 8 25.6
2020-Aug-12 09:01 051 4 gusting 7 25.6
2020-Aug-12 08:45 044 3 gusting 6 26.1
2020-Aug-12 08:30 063 4 gusting 8 26.1
2020-Aug-12 08:16 065 4 gusting 7 26.1
2020-Aug-12 08:00 078 4 gusting 7 26.1
2020-Aug-12 07:46 069 3 gusting 8 26.1
2020-Aug-12 07:30 076 4 gusting 7 26.1
2020-Aug-12 07:16 055 3 gusting 6 26.1
2020-Aug-12 07:00 051 3 gusting 6 26.7
2020-Aug-12 06:45 065 2 gusting 5 26.7
2020-Aug-12 06:15 047 3 gusting 7 26.7
2020-Aug-12 06:00 045 5 gusting 7 26.7
2020-Aug-12 05:45 071 3 gusting 7 26.7
2020-Aug-12 05:32 059 4 gusting 8 26.7
2020-Aug-12 05:17 046 4 gusting 7 26.7
2020-Aug-12 05:01 065 5 gusting 7 26.7
2020-Aug-12 04:47 063 4 gusting 7 26.7
2020-Aug-12 04:31 066 4 gusting 9 26.7
2020-Aug-12 04:15 070 4 gusting 7 26.7
2020-Aug-12 04:01 071 5 gusting 8 26.7
2020-Aug-12 03:47 061 4 gusting 8 26.7
2020-Aug-12 03:31 067 5 gusting 8 26.7
2020-Aug-12 03:16 059 4 gusting 7 26.7
2020-Aug-12 03:01 069 5 gusting 8 26.7
2020-Aug-12 02:46 069 5 gusting 8 26.7
2020-Aug-12 02:31 067 5 gusting 8 27.2
2020-Aug-12 02:17 083 3 gusting 7 27.2
2020-Aug-12 02:01 085 5 gusting 7 27.2
2020-Aug-12 01:45 098 7 gusting 10 27.8
2020-Aug-12 01:30 099 6 gusting 9 27.8
2020-Aug-12 01:16 090 6 gusting 10 27.8
2020-Aug-12 01:01 127 6 gusting 13 28.3
2020-Aug-12 00:46 119 9 gusting 17 28.9
2020-Aug-12 00:32 108 12 gusting 19 28.9
2020-Aug-12 00:16 195 13 gusting 19 28.9
2020-Aug-12 00:01 132 13 gusting 19 28.9
2020-Aug-11 23:46 157 12 gusting 19 28.9
2020-Aug-11 23:31 360 12 gusting 20 28.9
2020-Aug-11 23:16 130 13 gusting 20 28.9
2020-Aug-11 23:01 107 10 gusting 21 28.9
2020-Aug-11 22:45 150 11 gusting 21 28.9
2020-Aug-11 22:31 135 13 gusting 21 29.4
2020-Aug-11 22:15 149 11 gusting 19 29.4
2020-Aug-11 21:46 165 13 gusting 19 29.4
2020-Aug-11 21:30 125 10 gusting 21 29.4
2020-Aug-11 21:16 130 12 gusting 19 29.4
2020-Aug-11 21:01 132 13 gusting 19 30.0
2020-Aug-11 20:45 172 12 gusting 20 30.0
2020-Aug-11 20:30 153 13 gusting 19 29.4
2020-Aug-11 20:15 133 11 gusting 20 29.4
2020-Aug-11 20:01 138 13 gusting 21 29.4
2020-Aug-11 19:45 130 13 gusting 24 29.4
2020-Aug-11 19:31 133 13 gusting 21 30.0
2020-Aug-11 19:15 152 13 gusting 20 30.0
2020-Aug-11 19:00 146 13 gusting 23 30.0
2020-Aug-11 18:45 050 13 gusting 20 30.0
2020-Aug-11 18:31 161 12 gusting 24 30.0
2020-Aug-11 18:15 153 13 gusting 20 30.0
2020-Aug-11 18:00 129 11 gusting 20 30.0
2020-Aug-11 17:45 155 10 gusting 19 30.6
2020-Aug-11 17:30 176 11 gusting 20 30.0
2020-Aug-11 17:15 182 11 gusting 18 30.6
2020-Aug-11 17:00 141 8 gusting 19 30.6
2020-Aug-11 16:46 143 11 gusting 19 30.0
2020-Aug-11 16:30 141 11 gusting 19 30.0
2020-Aug-11 16:15 142 12 gusting 19 30.0
2020-Aug-11 16:00 138 12 gusting 20 30.0
2020-Aug-11 15:45 117 12 gusting 19 30.0
2020-Aug-11 15:30 139 11 gusting 19 30.0
2020-Aug-11 15:15 152 11 gusting 17 30.0
2020-Aug-11 15:00 138 8 gusting 14 30.0
2020-Aug-11 14:45 140 7 gusting 14 30.0
2020-Aug-11 14:30 140 9 gusting 14 30.0
2020-Aug-11 14:15 145 6 gusting 13 30.0
2020-Aug-11 14:00 117 7 gusting 13 30.6
2020-Aug-11 13:45 130 6 gusting 13 30.0
2020-Aug-11 13:30 123 10 gusting 15 30.0
2020-Aug-11 13:15 166 8 gusting 13 29.4
2020-Aug-11 13:00 081 7 gusting 10 28.9
2020-Aug-11 12:46 070 6 gusting 12 28.3
2020-Aug-11 12:31 061 7 gusting 12 28.3
2020-Aug-11 12:16 099 6 gusting 9 27.8
2020-Aug-11 12:02 067 6 gusting 8 27.2
2020-Aug-11 11:49 058 5 gusting 7 26.7
2020-Aug-11 11:31 051 4 gusting 6 26.1
2020-Aug-11 11:16 038 5 gusting 7 25.6
2020-Aug-11 11:02 039 2 gusting 7 25.0
2020-Aug-11 10:31 047 3 gusting 5 24.4
2020-Aug-11 10:16 038 2 gusting 5 24.4
2020-Aug-11 10:00 031 3 gusting 6 24.4
2020-Aug-11 09:46 040 3 gusting 6 24.4
2020-Aug-11 09:32 039 4 gusting 6 24.4
2020-Aug-11 09:15 028 1 gusting 4 24.4
2020-Aug-11 09:00 032 2 gusting 5 25.0
2020-Aug-11 08:46 045 5 gusting 7 24.4
2020-Aug-11 08:30 046 5 gusting 8 25.0
2020-Aug-11 08:15 040 5 gusting 7 25.0
2020-Aug-11 08:00 053 4 gusting 6 25.0